Flugplatz Sierksdorf/Hof Altona

Für EDXT sind keine METAR/TAF Berichte vorhanden.
Es werden die Flugwettermeldungen vom Flugplatz Lübeck Blankensee in 29 km Entfernung angezeigt.

Bericht für EDHL

vom 31.05. um 10:50 UTC

Wind 14 kt aus 30°

Sichtweite 10 km oder mehr

gute Sicht, keine Wolken < 5000 ft, keine CB, keine Wettererscheinungen (CAVOK)

Temperatur 17.0°C

Taupunkt 8.0°C

Luftfeuchtigkeit 55%

Luftdruck 1025 hPa

EDHL 311050Z 03014KT CAVOK 17/08 Q1025

Prognose für EDHL

vom 31.05. um 08:00 UTC

Zwischen 09:00 UTC und 18:00 UTC

Wind 13 kt aus 30°

Sichtweite 10 km oder mehr

keine signifikanten Wettererscheinungen

keine Wolken


Zwischen 09:00 UTC und 18:00 UTC zeitweise

Wind 15 kt aus 60° in Böen 25 kt

TAF EDHL 310800Z 3109/3118 03013KT CAVOK TEMPO 3109/3118 06015G25KT
Impressum